ADDS METAR Data

Data at: 1828 UTC 20 Jul 2018

METAR for:KLEW (Auburn-Lewiston Muni, ME, US)
Text:KLEW 201756Z AUTO 16010KT 10SM CLR 28/16 A3017 RMK AO2 SLP228 T02780156 10278 20167 58009
Temperature: 27.8°C ( 82°F)
Dewpoint: 15.6°C ( 60°F) [RH = 47%]
Pressure (altimeter):30.17 inches Hg (1021.8 mb) [Sea level pressure: 1022.8 mb]
Winds:from the SSE (160 degrees) at 12 MPH (10 knots; 5.1 m/s)
Visibility:10 or more sm (16+ km)
Ceiling:at least 12,000 feet AGL
Clouds:sky clear below 12,000 feet AGL
QC Flag:automated observation with no human augmentation